createdAt,value
2023-01-15T00:00:21.076Z,9.27
2023-01-15T00:00:52.890Z,9.27
2023-01-15T00:01:24.980Z,9.27
2023-01-15T00:01:56.986Z,9.27
2023-01-15T00:02:28.785Z,9.27
2023-01-15T00:03:00.855Z,9.27
2023-01-15T00:03:32.880Z,9.27
2023-01-15T00:04:04.808Z,9.27
2023-01-15T00:04:36.683Z,9.27
2023-01-15T00:05:08.725Z,9.27
2023-01-15T00:05:40.746Z,9.27
2023-01-15T00:06:12.738Z,9.27
2023-01-15T00:06:44.550Z,9.27
2023-01-15T00:07:16.688Z,9.27
2023-01-15T00:07:48.730Z,9.27
2023-01-15T00:08:20.726Z,9.27
2023-01-15T00:08:52.503Z,9.27
2023-01-15T00:09:24.513Z,9.27
2023-01-15T00:09:56.507Z,9.27
2023-01-15T00:10:28.577Z,9.27
2023-01-15T00:11:00.400Z,9.27
2023-01-15T00:11:32.453Z,9.27
2023-01-15T00:12:04.501Z,9.22
2023-01-15T00:12:36.534Z,9.22
2023-01-15T00:13:08.327Z,9.22
2023-01-15T00:13:40.358Z,9.22
2023-01-15T00:14:12.392Z,9.27
2023-01-15T00:14:44.422Z,9.27
2023-01-15T00:15:16.401Z,9.27
2023-01-15T00:15:48.353Z,9.27
2023-01-15T00:16:20.465Z,9.27
2023-01-15T00:16:52.130Z,9.27
2023-01-15T00:17:24.170Z,9.27
2023-01-15T00:17:56.196Z,9.27
2023-01-15T00:18:28.134Z,9.27
2023-01-15T00:19:00.244Z,9.27
2023-01-15T00:19:32.033Z,9.27
2023-01-15T00:20:04.202Z,9.27
2023-01-15T00:20:36.161Z,9.27
2023-01-15T00:21:08.004Z,9.27
2023-01-15T00:21:40.026Z,9.27
2023-01-15T00:22:12.060Z,9.27
2023-01-15T00:22:44.083Z,9.22
2023-01-15T00:23:15.923Z,9.22
2023-01-15T00:23:47.936Z,9.22
2023-01-15T00:24:20.017Z,9.22
2023-01-15T00:24:52.031Z,9.22
2023-01-15T00:25:23.815Z,9.22
2023-01-15T00:25:55.852Z,9.22
2023-01-15T00:26:27.872Z,9.22
2023-01-15T00:26:59.931Z,9.22
2023-01-15T00:27:31.736Z,9.22
2023-01-15T00:28:03.762Z,9.22
2023-01-15T00:28:35.899Z,9.11
2023-01-15T00:29:08.726Z,9.11
2023-01-15T00:29:39.666Z,9.11
2023-01-15T00:30:12.842Z,9.11
2023-01-15T00:30:43.691Z,9.11
2023-01-15T00:31:16.859Z,9.11
2023-01-15T00:31:47.602Z,9.11
2023-01-15T00:32:20.485Z,9.11
2023-01-15T00:32:51.568Z,9.11
2023-01-15T00:33:24.542Z,9.11
2023-01-15T00:33:55.500Z,9.11
2023-01-15T00:34:28.409Z,9.11
2023-01-15T00:34:59.516Z,9.11
2023-01-15T00:35:32.273Z,9.11
2023-01-15T00:36:03.391Z,9.11
2023-01-15T00:36:36.364Z,9.11
2023-01-15T00:37:07.418Z,9.11
2023-01-15T00:37:40.140Z,9.11
2023-01-15T00:38:11.327Z,9.11
2023-01-15T00:38:44.194Z,9.11
2023-01-15T00:39:15.353Z,9.11
2023-01-15T00:39:48.071Z,9.11
2023-01-15T00:40:19.259Z,9.11
2023-01-15T00:40:52.184Z,9.11
2023-01-15T00:41:23.282Z,9.11
2023-01-15T00:41:56.105Z,9.11
2023-01-15T00:42:27.147Z,9.00
2023-01-15T00:43:00.097Z,9.00
2023-01-15T00:43:31.204Z,9.00
2023-01-15T00:44:03.972Z,9.00
2023-01-15T00:44:35.068Z,9.00
2023-01-15T00:45:08.363Z,9.00
2023-01-15T00:45:39.071Z,9.00
2023-01-15T00:46:11.982Z,9.00
2023-01-15T00:46:43.077Z,9.00
2023-01-15T00:47:15.921Z,9.00
2023-01-15T00:47:47.080Z,9.00
2023-01-15T00:48:19.774Z,8.88
2023-01-15T00:48:50.899Z,8.88
2023-01-15T00:49:23.810Z,8.88
2023-01-15T00:49:54.940Z,8.88
2023-01-15T00:50:27.678Z,8.88
2023-01-15T00:50:58.810Z,8.88
2023-01-15T00:51:31.766Z,8.88
2023-01-15T00:52:02.905Z,8.88
2023-01-15T00:52:35.628Z,8.88
2023-01-15T00:53:06.817Z,8.88
2023-01-15T00:53:39.664Z,8.88
2023-01-15T00:54:10.771Z,8.88
2023-01-15T00:54:43.572Z,8.88
2023-01-15T00:55:14.670Z,8.88
2023-01-15T00:55:47.598Z,8.77
2023-01-15T00:56:18.535Z,8.77
2023-01-15T00:56:51.521Z,8.77
2023-01-15T00:57:22.548Z,8.77
2023-01-15T00:57:55.511Z,8.77
2023-01-15T00:58:26.492Z,8.77
2023-01-15T00:58:59.449Z,8.77
2023-01-15T00:59:30.454Z,8.77
2023-01-15T01:00:03.647Z,8.77
2023-01-15T01:00:34.414Z,8.77
2023-01-15T01:01:07.323Z,8.77
2023-01-15T01:01:38.585Z,8.77
2023-01-15T01:02:11.425Z,8.77
2023-01-15T01:02:42.357Z,8.77
2023-01-15T01:03:15.283Z,8.77
2023-01-15T01:03:46.361Z,8.77
2023-01-15T01:04:19.257Z,8.77
2023-01-15T01:04:50.208Z,8.77
2023-01-15T01:05:23.130Z,8.72
2023-01-15T01:05:54.303Z,8.72
2023-01-15T01:06:27.087Z,8.72
2023-01-15T01:06:58.094Z,8.72
2023-01-15T01:07:31.065Z,8.72
2023-01-15T01:08:02.195Z,8.72
2023-01-15T01:08:35.348Z,8.72
2023-01-15T01:09:06.036Z,8.72
2023-01-15T01:09:38.938Z,8.72
2023-01-15T01:10:10.039Z,8.72
2023-01-15T01:10:42.760Z,8.72
2023-01-15T01:11:13.897Z,8.72
2023-01-15T01:11:47.266Z,8.72
2023-01-15T01:12:18.005Z,8.72
2023-01-15T01:12:50.714Z,8.72
2023-01-15T01:13:22.267Z,8.72
2023-01-15T01:13:54.883Z,8.72
2023-01-15T01:14:25.995Z,8.72
2023-01-15T01:14:58.614Z,8.72
2023-01-15T01:15:29.902Z,8.72
2023-01-15T01:16:02.827Z,8.72
2023-01-15T01:16:33.856Z,8.72
2023-01-15T01:17:06.573Z,8.72
2023-01-15T01:17:37.670Z,8.72
2023-01-15T01:18:10.621Z,8.72
2023-01-15T01:18:41.741Z,8.72
2023-01-15T01:19:14.464Z,8.72
2023-01-15T01:19:46.144Z,8.72
2023-01-15T01:20:18.543Z,8.72
2023-01-15T01:20:49.655Z,8.72
2023-01-15T01:21:22.392Z,8.72
2023-01-15T01:21:53.483Z,8.72
2023-01-15T01:22:26.541Z,8.72
2023-01-15T01:22:57.647Z,8.72
2023-01-15T01:23:30.373Z,8.72
2023-01-15T01:24:01.448Z,8.72
2023-01-15T01:24:34.387Z,8.72
2023-01-15T01:25:05.520Z,8.61
2023-01-15T01:25:38.135Z,8.61
2023-01-15T01:26:09.337Z,8.61
2023-01-15T01:26:42.256Z,8.61
2023-01-15T01:27:13.347Z,8.61
2023-01-15T01:27:46.140Z,8.61
2023-01-15T01:28:17.306Z,8.61
2023-01-15T01:28:50.353Z,8.61
2023-01-15T01:29:21.329Z,8.61
2023-01-15T01:29:54.008Z,8.61
2023-01-15T01:30:25.335Z,8.61
2023-01-15T01:30:58.123Z,8.61
2023-01-15T01:31:29.071Z,8.61
2023-01-15T01:32:01.963Z,8.61
2023-01-15T01:32:34.149Z,8.61
2023-01-15T01:33:06.040Z,8.61
2023-01-15T01:33:36.944Z,8.61
2023-01-15T01:34:09.842Z,8.50
2023-01-15T01:34:41.002Z,8.50
2023-01-15T01:35:13.873Z,8.50
2023-01-15T01:35:44.898Z,8.50
2023-01-15T01:36:18.178Z,8.50
2023-01-15T01:36:48.891Z,8.50
2023-01-15T01:37:21.814Z,8.50
2023-01-15T01:37:52.779Z,8.50
2023-01-15T01:38:25.728Z,8.50
2023-01-15T01:38:56.787Z,8.50
2023-01-15T01:39:29.783Z,8.50
2023-01-15T01:40:00.769Z,8.50
2023-01-15T01:40:33.588Z,8.50
2023-01-15T01:41:04.697Z,8.50
2023-01-15T01:41:37.685Z,8.38
2023-01-15T01:42:08.580Z,8.38
2023-01-15T01:42:44.132Z,8.38
2023-01-15T01:43:12.653Z,8.38
2023-01-15T01:43:45.693Z,8.38
2023-01-15T01:44:16.538Z,8.38
2023-01-15T01:44:49.454Z,8.27
2023-01-15T01:45:20.746Z,8.27
2023-01-15T01:45:53.598Z,8.27
2023-01-15T01:46:24.451Z,8.27
2023-01-15T01:46:57.338Z,8.27
2023-01-15T01:47:28.425Z,8.27
2023-01-15T01:48:01.426Z,8.27
2023-01-15T01:48:32.342Z,8.27
2023-01-15T01:49:05.406Z,8.27
2023-01-15T01:49:36.389Z,8.27
2023-01-15T01:50:09.336Z,8.27
2023-01-15T01:50:40.344Z,8.27
2023-01-15T01:51:13.145Z,8.27
2023-01-15T01:51:44.357Z,8.22
2023-01-15T01:52:17.111Z,8.22
2023-01-15T01:52:49.583Z,8.22
2023-01-15T01:53:21.307Z,8.22
2023-01-15T01:53:52.229Z,8.22
2023-01-15T01:54:24.913Z,8.22
2023-01-15T01:54:56.087Z,8.11
2023-01-15T01:55:29.077Z,8.11
2023-01-15T01:56:00.167Z,8.11
2023-01-15T01:56:33.046Z,8.11
2023-01-15T01:57:03.998Z,8.11
2023-01-15T01:57:37.061Z,8.11
2023-01-15T01:58:08.063Z,8.11
2023-01-15T01:58:40.821Z,8.11
2023-01-15T01:59:11.939Z,8.11
2023-01-15T01:59:45.021Z,8.11
2023-01-15T02:00:16.253Z,8.11
2023-01-15T02:00:48.855Z,8.00
2023-01-15T02:01:20.015Z,8.00
2023-01-15T02:01:52.850Z,7.88
2023-01-15T02:02:23.964Z,7.88
2023-01-15T02:02:56.678Z,7.77
2023-01-15T02:03:33.112Z,7.77
2023-01-15T02:04:00.693Z,7.77
2023-01-15T02:04:31.831Z,7.77
2023-01-15T02:05:04.590Z,7.72
2023-01-15T02:05:36.214Z,7.72
2023-01-15T02:06:08.633Z,7.72
2023-01-15T02:06:39.638Z,7.72
2023-01-15T02:07:12.392Z,7.72
2023-01-15T02:07:43.628Z,7.72
2023-01-15T02:08:16.639Z,7.72
2023-01-15T02:08:47.460Z,7.61
2023-01-15T02:09:20.369Z,7.61
2023-01-15T02:09:51.526Z,7.61
2023-01-15T02:10:24.419Z,7.61
2023-01-15T02:10:55.880Z,7.61
2023-01-15T02:11:28.310Z,7.61
2023-01-15T02:11:59.390Z,7.61
2023-01-15T02:12:32.391Z,7.50
2023-01-15T02:13:03.561Z,7.50
2023-01-15T02:13:36.527Z,7.38
2023-01-15T02:14:07.379Z,7.27
2023-01-15T02:14:40.251Z,7.27
2023-01-15T02:15:11.428Z,7.27
2023-01-15T02:15:44.249Z,7.27
2023-01-15T02:16:15.639Z,7.27
2023-01-15T02:16:47.996Z,7.27
2023-01-15T02:17:19.154Z,7.22
2023-01-15T02:17:52.095Z,7.22
2023-01-15T02:18:23.213Z,7.22
2023-01-15T02:18:55.925Z,7.22
2023-01-15T02:19:27.127Z,7.11
2023-01-15T02:19:59.947Z,7.11
2023-01-15T02:20:31.106Z,7.11
2023-01-15T02:21:03.789Z,7.11
2023-01-15T02:21:35.020Z,7.00
2023-01-15T02:22:07.914Z,7.00
2023-01-15T02:22:39.064Z,7.00
2023-01-15T02:23:11.708Z,6.88
2023-01-15T02:23:42.930Z,6.88
2023-01-15T02:24:15.848Z,6.88
2023-01-15T02:24:47.031Z,6.88
2023-01-15T02:25:19.683Z,6.77
2023-01-15T02:25:50.752Z,6.77
2023-01-15T02:26:23.847Z,6.77
2023-01-15T02:26:54.674Z,6.72
2023-01-15T02:27:27.473Z,6.72
2023-01-15T02:27:58.758Z,6.61
2023-01-15T02:28:31.713Z,6.50
2023-01-15T02:29:02.614Z,6.50
2023-01-15T02:29:35.830Z,6.38
2023-01-15T02:30:06.966Z,6.38
2023-01-15T02:30:39.447Z,6.38
2023-01-15T02:31:10.574Z,6.38
2023-01-15T02:31:43.683Z,6.27
2023-01-15T02:32:14.671Z,6.27
2023-01-15T02:32:47.340Z,6.27
2023-01-15T02:33:18.489Z,6.22
2023-01-15T02:33:51.444Z,6.22
2023-01-15T02:34:22.392Z,6.22
2023-01-15T02:34:55.320Z,6.11
2023-01-15T02:35:26.394Z,6.11
2023-01-15T02:35:59.316Z,6.11
2023-01-15T02:36:30.288Z,6.11
2023-01-15T02:37:03.424Z,6.11
2023-01-15T02:37:34.469Z,6.11
2023-01-15T02:38:07.223Z,6.11
2023-01-15T02:38:38.183Z,6.11
2023-01-15T02:39:11.114Z,6.00
2023-01-15T02:39:42.279Z,6.00
2023-01-15T02:40:15.205Z,5.88
2023-01-15T02:40:46.099Z,5.88
2023-01-15T02:41:19.037Z,5.88
2023-01-15T02:41:55.202Z,5.88
2023-01-15T02:42:24.658Z,5.88
2023-01-15T02:42:54.066Z,5.88
2023-01-15T02:43:27.077Z,5.77
2023-01-15T02:43:58.114Z,5.77
2023-01-15T02:44:31.047Z,5.77
2023-01-15T02:45:02.242Z,5.77
2023-01-15T02:45:36.363Z,5.72
2023-01-15T02:46:06.083Z,5.72
2023-01-15T02:46:38.727Z,5.72
2023-01-15T02:47:09.910Z,5.72
2023-01-15T02:47:42.782Z,5.72
2023-01-15T02:48:13.888Z,5.72
2023-01-15T02:48:47.220Z,5.72
2023-01-15T02:49:17.797Z,5.72
2023-01-15T02:49:50.662Z,5.72
2023-01-15T02:50:21.795Z,5.61
2023-01-15T02:50:54.568Z,5.61
2023-01-15T02:51:25.711Z,5.61
2023-01-15T02:51:59.264Z,5.61
2023-01-15T02:52:29.783Z,5.50
2023-01-15T02:53:02.500Z,5.50
2023-01-15T02:53:33.647Z,5.50
2023-01-15T02:54:06.520Z,5.50
2023-01-15T02:54:37.688Z,5.50
2023-01-15T02:55:10.438Z,5.50
2023-01-15T02:55:41.599Z,5.50
2023-01-15T02:56:14.750Z,5.50
2023-01-15T02:56:45.615Z,5.38
2023-01-15T02:57:18.383Z,5.38
2023-01-15T02:57:49.448Z,5.38
2023-01-15T02:58:22.387Z,5.38
2023-01-15T02:58:53.520Z,5.38
2023-01-15T02:59:26.257Z,5.38
2023-01-15T02:59:57.361Z,5.38
2023-01-15T03:00:30.491Z,5.38
2023-01-15T03:01:01.555Z,5.38
2023-01-15T03:01:34.438Z,5.27
2023-01-15T03:02:05.538Z,5.27
2023-01-15T03:02:38.222Z,5.27
2023-01-15T03:03:09.328Z,5.27
2023-01-15T03:03:42.059Z,5.27
2023-01-15T03:04:13.243Z,5.27
2023-01-15T03:04:46.839Z,5.27
2023-01-15T03:05:17.264Z,5.27
2023-01-15T03:05:49.937Z,5.27
2023-01-15T03:06:21.156Z,5.27
2023-01-15T03:06:54.212Z,5.27
2023-01-15T03:07:24.944Z,5.27
2023-01-15T03:07:57.902Z,5.27
2023-01-15T03:08:29.054Z,5.27
2023-01-15T03:09:01.987Z,5.27
2023-01-15T03:09:33.422Z,5.27
2023-01-15T03:10:05.840Z,5.27
2023-01-15T03:10:36.955Z,5.22
2023-01-15T03:11:09.887Z,5.22
2023-01-15T03:11:40.801Z,5.22
2023-01-15T03:12:13.743Z,5.22
2023-01-15T03:12:44.838Z,5.22
2023-01-15T03:13:17.846Z,5.22
2023-01-15T03:13:48.693Z,5.22
2023-01-15T03:14:21.662Z,5.22
2023-01-15T03:14:52.771Z,5.22
2023-01-15T03:15:25.931Z,5.22
2023-01-15T03:15:56.616Z,5.22
2023-01-15T03:16:29.543Z,5.22
2023-01-15T03:17:00.682Z,5.22
2023-01-15T03:17:33.632Z,5.22
2023-01-15T03:18:04.523Z,5.22
2023-01-15T03:18:37.462Z,5.22
2023-01-15T03:19:08.594Z,5.22
2023-01-15T03:19:41.500Z,5.22
2023-01-15T03:20:12.483Z,5.22
2023-01-15T03:20:45.364Z,5.22
2023-01-15T03:21:16.515Z,5.22
2023-01-15T03:21:49.475Z,5.22
2023-01-15T03:22:20.390Z,5.11
2023-01-15T03:22:53.349Z,5.11
2023-01-15T03:23:24.421Z,5.11
2023-01-15T03:23:57.426Z,5.11
2023-01-15T03:24:28.281Z,5.11
2023-01-15T03:25:01.516Z,5.11
2023-01-15T03:25:32.359Z,5.11
2023-01-15T03:26:05.308Z,5.11
2023-01-15T03:26:36.241Z,5.11
2023-01-15T03:27:09.216Z,5.11
2023-01-15T03:27:40.273Z,5.11
2023-01-15T03:28:13.210Z,5.11
2023-01-15T03:28:44.055Z,5.11
2023-01-15T03:29:17.065Z,5.11
2023-01-15T03:29:48.126Z,5.00
2023-01-15T03:30:21.098Z,5.00
2023-01-15T03:30:52.134Z,5.00
2023-01-15T03:31:24.929Z,5.00
2023-01-15T03:31:56.107Z,5.00
2023-01-15T03:32:28.995Z,5.00
2023-01-15T03:32:59.948Z,5.00
2023-01-15T03:33:32.836Z,5.00
2023-01-15T03:34:04.012Z,4.88
2023-01-15T03:34:36.734Z,4.88
2023-01-15T03:35:07.859Z,4.88
2023-01-15T03:35:40.851Z,4.88
2023-01-15T03:36:11.921Z,4.88
2023-01-15T03:36:44.695Z,4.88
2023-01-15T03:37:15.747Z,4.88
2023-01-15T03:37:48.732Z,4.77
2023-01-15T03:38:19.795Z,4.77
2023-01-15T03:38:52.671Z,4.77
2023-01-15T03:39:23.704Z,4.77
2023-01-15T03:39:56.575Z,4.77
2023-01-15T03:40:27.845Z,4.72
2023-01-15T03:41:00.494Z,4.72
2023-01-15T03:41:31.636Z,4.72
2023-01-15T03:42:04.571Z,4.77
2023-01-15T03:42:35.705Z,4.77
2023-01-15T03:43:08.413Z,4.77
2023-01-15T03:43:39.635Z,4.77
2023-01-15T03:44:12.505Z,4.72
2023-01-15T03:44:43.564Z,4.72
2023-01-15T03:45:16.528Z,4.72
2023-01-15T03:45:47.458Z,4.72
2023-01-15T03:46:20.549Z,4.72
2023-01-15T03:46:51.368Z,4.61
2023-01-15T03:47:24.273Z,4.61
2023-01-15T03:47:55.390Z,4.61
2023-01-15T03:48:28.424Z,4.61
2023-01-15T03:48:59.242Z,4.61
2023-01-15T03:49:32.155Z,4.61
2023-01-15T03:50:03.286Z,4.61
2023-01-15T03:50:37.202Z,4.61
2023-01-15T03:51:07.108Z,4.50
2023-01-15T03:51:40.242Z,4.50
2023-01-15T03:52:11.243Z,4.50
2023-01-15T03:52:44.142Z,4.50
2023-01-15T03:53:15.016Z,4.50
2023-01-15T03:53:48.049Z,4.50
2023-01-15T03:54:19.119Z,4.50
2023-01-15T03:54:52.122Z,4.50
2023-01-15T03:55:24.162Z,4.61
2023-01-15T03:55:55.876Z,4.61
2023-01-15T03:56:27.019Z,4.61
2023-01-15T03:56:59.976Z,4.61
2023-01-15T03:57:30.943Z,4.61
2023-01-15T03:58:03.832Z,4.50
2023-01-15T03:58:34.959Z,4.50
2023-01-15T03:59:07.914Z,4.50
2023-01-15T03:59:38.845Z,4.50
2023-01-15T04:00:12.146Z,4.50
2023-01-15T04:00:42.875Z,4.50
2023-01-15T04:01:15.943Z,4.50
2023-01-15T04:01:46.880Z,4.50
2023-01-15T04:02:19.647Z,4.61
2023-01-15T04:02:50.781Z,4.61
2023-01-15T04:03:23.738Z,4.61
2023-01-15T04:03:54.671Z,4.61
2023-01-15T04:04:27.600Z,4.61
2023-01-15T04:04:58.744Z,4.61
2023-01-15T04:05:31.742Z,4.61
2023-01-15T04:06:02.545Z,4.61
2023-01-15T04:06:35.787Z,4.50
2023-01-15T04:07:06.617Z,4.50
2023-01-15T04:07:39.568Z,4.50
2023-01-15T04:08:10.481Z,4.50
2023-01-15T04:08:43.470Z,4.50
2023-01-15T04:09:14.474Z,4.61
2023-01-15T04:09:47.488Z,4.61
2023-01-15T04:10:18.401Z,4.61
2023-01-15T04:10:51.291Z,4.61
2023-01-15T04:11:22.457Z,4.61
2023-01-15T04:11:55.060Z,4.61
2023-01-15T04:12:26.307Z,4.61
2023-01-15T04:12:59.236Z,4.61
2023-01-15T04:13:31.547Z,4.61
2023-01-15T04:14:03.376Z,4.61
2023-01-15T04:14:34.200Z,4.61
2023-01-15T04:15:07.428Z,4.61
2023-01-15T04:15:38.381Z,4.61
2023-01-15T04:16:11.030Z,4.61
2023-01-15T04:16:42.126Z,4.50
2023-01-15T04:17:15.047Z,4.50
2023-01-15T04:17:46.175Z,4.50
2023-01-15T04:18:18.863Z,4.50
2023-01-15T04:18:50.021Z,4.50
2023-01-15T04:19:22.958Z,4.50
2023-01-15T04:19:54.022Z,4.50
2023-01-15T04:20:26.914Z,4.50
2023-01-15T04:20:57.963Z,4.50
2023-01-15T04:21:30.857Z,4.50
2023-01-15T04:22:02.053Z,4.50
2023-01-15T04:22:35.978Z,4.50
2023-01-15T04:23:05.874Z,4.50
2023-01-15T04:23:38.945Z,4.50
2023-01-15T04:24:09.967Z,4.50
2023-01-15T04:24:42.692Z,4.50
2023-01-15T04:25:13.747Z,4.50
2023-01-15T04:25:46.780Z,4.50
2023-01-15T04:26:17.606Z,4.50
2023-01-15T04:26:50.661Z,4.50
2023-01-15T04:27:21.677Z,4.50
2023-01-15T04:27:54.728Z,4.50
2023-01-15T04:28:25.601Z,4.50
2023-01-15T04:28:59.292Z,4.50
2023-01-15T04:29:29.615Z,4.50
2023-01-15T04:30:02.720Z,4.50
2023-01-15T04:30:33.693Z,4.50
2023-01-15T04:31:06.546Z,4.50
2023-01-15T04:31:37.543Z,4.50
2023-01-15T04:32:10.486Z,4.50
2023-01-15T04:32:41.395Z,4.50
2023-01-15T04:33:14.493Z,4.50
2023-01-15T04:33:46.256Z,4.50
2023-01-15T04:34:18.367Z,4.50
2023-01-15T04:34:49.242Z,4.50
2023-01-15T04:35:22.796Z,4.50
2023-01-15T04:35:53.370Z,4.50
2023-01-15T04:36:26.266Z,4.50
2023-01-15T04:36:57.248Z,4.50
2023-01-15T04:37:30.181Z,4.50
2023-01-15T04:38:01.332Z,4.50
2023-01-15T04:38:34.282Z,4.50
2023-01-15T04:39:05.155Z,4.50
2023-01-15T04:39:38.118Z,4.50
2023-01-15T04:40:09.219Z,4.50
2023-01-15T04:40:42.207Z,4.50
2023-01-15T04:41:13.037Z,4.50
2023-01-15T04:41:45.998Z,4.50
2023-01-15T04:42:17.077Z,4.50
2023-01-15T04:42:50.014Z,4.50
2023-01-15T04:43:20.962Z,4.50
2023-01-15T04:43:53.879Z,4.50
2023-01-15T04:44:25.004Z,4.50
2023-01-15T04:44:57.936Z,4.50
2023-01-15T04:45:29.024Z,4.61
2023-01-15T04:46:01.987Z,4.61
2023-01-15T04:46:32.963Z,4.61
2023-01-15T04:47:05.888Z,4.61
2023-01-15T04:47:36.825Z,4.61
2023-01-15T04:48:09.713Z,4.50
2023-01-15T04:48:40.849Z,4.50
2023-01-15T04:49:13.694Z,4.50
2023-01-15T04:49:44.655Z,4.50
2023-01-15T04:50:17.609Z,4.50
2023-01-15T04:50:48.694Z,4.50
2023-01-15T04:51:21.650Z,4.38
2023-01-15T04:51:52.654Z,4.38
2023-01-15T04:52:25.567Z,4.38
2023-01-15T04:52:56.670Z,4.38
2023-01-15T04:53:29.600Z,4.38
2023-01-15T04:54:00.542Z,4.38
2023-01-15T04:54:33.463Z,4.38
2023-01-15T04:55:04.630Z,4.38
2023-01-15T04:55:37.523Z,4.38
2023-01-15T04:56:08.511Z,4.38
2023-01-15T04:56:48.303Z,4.38
2023-01-15T04:57:12.492Z,4.38
2023-01-15T04:57:44.302Z,4.38
2023-01-15T04:58:16.388Z,4.50
2023-01-15T04:58:48.358Z,4.50
2023-01-15T04:59:20.382Z,4.50
2023-01-15T04:59:52.280Z,4.50
2023-01-15T05:00:24.462Z,4.50
2023-01-15T05:00:56.443Z,4.50
2023-01-15T05:01:28.520Z,4.50
2023-01-15T05:02:06.123Z,4.50
2023-01-15T05:02:32.229Z,4.50
2023-01-15T05:03:04.236Z,4.50
2023-01-15T05:03:36.294Z,4.50
2023-01-15T05:04:08.122Z,4.50
2023-01-15T05:04:40.132Z,4.50
2023-01-15T05:05:12.129Z,4.50
2023-01-15T05:05:44.102Z,4.50
2023-01-15T05:06:16.016Z,4.61
2023-01-15T05:06:47.992Z,4.61
2023-01-15T05:07:20.044Z,4.61
2023-01-15T05:07:52.100Z,4.61
2023-01-15T05:08:23.929Z,4.61
2023-01-15T05:08:55.915Z,4.61
2023-01-15T05:09:27.959Z,4.61
2023-01-15T05:09:59.963Z,4.61
2023-01-15T05:10:31.833Z,4.61
2023-01-15T05:11:03.864Z,4.61
2023-01-15T05:11:35.939Z,4.61
2023-01-15T05:12:07.930Z,4.61
2023-01-15T05:12:39.763Z,4.61
2023-01-15T05:13:11.784Z,4.61
2023-01-15T05:13:43.702Z,4.61
2023-01-15T05:14:15.797Z,4.61
2023-01-15T05:14:47.602Z,4.61
2023-01-15T05:15:19.812Z,4.61
2023-01-15T05:15:51.812Z,4.61
2023-01-15T05:16:23.738Z,4.61
2023-01-15T05:16:55.551Z,4.61
2023-01-15T05:17:27.587Z,4.61
2023-01-15T05:17:59.677Z,4.61
2023-01-15T05:18:31.607Z,4.61
2023-01-15T05:19:03.501Z,4.61
2023-01-15T05:19:36.043Z,4.61
2023-01-15T05:20:07.531Z,4.61
2023-01-15T05:20:39.571Z,4.61
2023-01-15T05:21:11.396Z,4.61
2023-01-15T05:21:43.435Z,4.61
2023-01-15T05:22:15.470Z,4.61
2023-01-15T05:22:47.505Z,4.61
2023-01-15T05:23:19.280Z,4.61
2023-01-15T05:23:51.343Z,4.61
2023-01-15T05:24:23.335Z,4.61
2023-01-15T05:24:55.367Z,4.61
2023-01-15T05:25:27.181Z,4.61
2023-01-15T05:25:59.255Z,4.61
2023-01-15T05:26:31.303Z,4.61
2023-01-15T05:27:03.076Z,4.61
2023-01-15T05:27:35.165Z,4.61
2023-01-15T05:28:07.174Z,4.61
2023-01-15T05:28:39.252Z,4.61
2023-01-15T05:29:11.227Z,4.61
2023-01-15T05:29:43.033Z,4.61
2023-01-15T05:30:15.294Z,4.61
2023-01-15T05:30:47.102Z,4.61
2023-01-15T05:31:19.024Z,4.61
2023-01-15T05:31:50.963Z,4.61
2023-01-15T05:32:22.995Z,4.61
2023-01-15T05:32:55.018Z,4.61
2023-01-15T05:33:26.819Z,4.61
2023-01-15T05:33:58.895Z,4.61
2023-01-15T05:34:30.869Z,4.61
2023-01-15T05:35:03.003Z,4.61
2023-01-15T05:35:34.791Z,4.61
2023-01-15T05:36:06.868Z,4.61
2023-01-15T05:36:38.856Z,4.61
2023-01-15T05:37:10.852Z,4.61
2023-01-15T05:37:42.720Z,4.61
2023-01-15T05:38:14.669Z,4.61
2023-01-15T05:38:46.711Z,4.61
2023-01-15T05:39:18.748Z,4.61
2023-01-15T05:39:50.578Z,4.61
2023-01-15T05:40:22.722Z,4.61
2023-01-15T05:40:54.577Z,4.61
2023-01-15T05:41:26.667Z,4.61
2023-01-15T05:41:58.563Z,4.61
2023-01-15T05:42:30.571Z,4.61
2023-01-15T05:43:02.544Z,4.61
2023-01-15T05:43:34.642Z,4.61
2023-01-15T05:44:06.485Z,4.61
2023-01-15T05:44:38.498Z,4.61
2023-01-15T05:45:10.699Z,4.61
2023-01-15T05:45:42.533Z,4.61
2023-01-15T05:46:14.333Z,4.61
2023-01-15T05:46:46.409Z,4.61
2023-01-15T05:47:18.418Z,4.61
2023-01-15T05:47:50.190Z,4.61
2023-01-15T05:48:22.297Z,4.61
2023-01-15T05:48:54.220Z,4.61
2023-01-15T05:49:26.349Z,4.61
2023-01-15T05:49:58.369Z,4.61
2023-01-15T05:50:30.125Z,4.61
2023-01-15T05:51:02.245Z,4.61
2023-01-15T05:51:35.584Z,4.61
2023-01-15T05:52:06.085Z,4.61
2023-01-15T05:52:39.012Z,4.61
2023-01-15T05:53:10.219Z,4.61
2023-01-15T05:53:43.064Z,4.61
2023-01-15T05:54:13.954Z,4.61
2023-01-15T05:54:47.005Z,4.61
2023-01-15T05:55:18.060Z,4.61
2023-01-15T05:55:50.990Z,4.61
2023-01-15T05:56:21.921Z,4.61
2023-01-15T05:56:54.819Z,4.61
2023-01-15T05:57:25.907Z,4.61
2023-01-15T05:57:58.926Z,4.61
2023-01-15T05:58:29.752Z,4.61
2023-01-15T05:59:02.762Z,4.61
2023-01-15T05:59:33.882Z,4.61
2023-01-15T06:00:07.354Z,4.61
2023-01-15T06:00:37.727Z,4.61
2023-01-15T06:01:10.729Z,4.72
2023-01-15T06:01:41.797Z,4.72
2023-01-15T06:02:14.709Z,4.72
2023-01-15T06:02:45.881Z,4.72
2023-01-15T06:03:18.576Z,4.72
2023-01-15T06:03:49.747Z,4.72
2023-01-15T06:04:22.661Z,4.72
2023-01-15T06:04:53.589Z,4.72
2023-01-15T06:05:26.479Z,4.72
2023-01-15T06:05:57.549Z,4.72
2023-01-15T06:06:30.646Z,4.72
2023-01-15T06:07:01.446Z,4.72
2023-01-15T06:07:34.543Z,4.72
2023-01-15T06:08:05.520Z,4.72
2023-01-15T06:08:38.724Z,4.72
2023-01-15T06:09:09.401Z,4.72
2023-01-15T06:09:42.291Z,4.72
2023-01-15T06:10:13.459Z,4.77
2023-01-15T06:10:46.856Z,4.77
2023-01-15T06:11:17.326Z,4.77
2023-01-15T06:11:50.233Z,4.77
2023-01-15T06:12:21.306Z,4.77
2023-01-15T06:12:54.274Z,4.77
2023-01-15T06:13:25.528Z,4.77
2023-01-15T06:13:58.214Z,4.77
2023-01-15T06:14:29.215Z,4.77
2023-01-15T06:15:02.470Z,4.77
2023-01-15T06:15:33.168Z,4.77
2023-01-15T06:16:06.132Z,4.77
2023-01-15T06:16:37.174Z,4.77
2023-01-15T06:17:10.802Z,4.77
2023-01-15T06:17:41.050Z,4.77
2023-01-15T06:18:13.997Z,4.77
2023-01-15T06:18:45.593Z,4.77
2023-01-15T06:19:18.058Z,4.77
2023-01-15T06:19:48.903Z,4.77
2023-01-15T06:20:21.831Z,4.77
2023-01-15T06:20:52.972Z,4.77
2023-01-15T06:21:25.735Z,4.77
2023-01-15T06:21:56.792Z,4.77
2023-01-15T06:22:29.802Z,4.77
2023-01-15T06:23:01.129Z,4.77
2023-01-15T06:23:49.555Z,4.77
2023-01-15T06:24:32.766Z,4.77
2023-01-15T06:25:05.793Z,4.77
2023-01-15T06:25:36.822Z,4.77
2023-01-15T06:26:09.658Z,4.77
2023-01-15T06:26:40.680Z,4.77
2023-01-15T06:27:13.629Z,4.77
2023-01-15T06:27:46.144Z,4.77
2023-01-15T06:28:17.455Z,4.77
2023-01-15T06:28:48.593Z,4.77
2023-01-15T06:29:21.461Z,4.77
2023-01-15T06:29:52.627Z,4.77
2023-01-15T06:30:25.520Z,4.77
2023-01-15T06:30:56.528Z,4.77
2023-01-15T06:31:29.529Z,4.77
2023-01-15T06:32:00.573Z,4.77
2023-01-15T06:32:33.279Z,4.77
2023-01-15T06:33:04.443Z,4.77
2023-01-15T06:33:37.337Z,4.77
2023-01-15T06:34:08.483Z,4.77
2023-01-15T06:34:41.203Z,4.77
2023-01-15T06:35:12.321Z,4.77
2023-01-15T06:35:45.326Z,4.77
2023-01-15T06:36:16.401Z,4.77
2023-01-15T06:36:49.122Z,4.77
2023-01-15T06:37:20.209Z,4.77
2023-01-15T06:37:53.146Z,4.77
2023-01-15T06:38:24.268Z,4.88
2023-01-15T06:38:57.103Z,4.88
2023-01-15T06:39:28.153Z,4.88
2023-01-15T06:40:01.337Z,4.88
2023-01-15T06:40:32.223Z,4.88
2023-01-15T06:41:04.972Z,4.88
2023-01-15T06:41:36.103Z,4.88
2023-01-15T06:42:09.005Z,4.88
2023-01-15T06:42:40.132Z,4.88
2023-01-15T06:43:12.989Z,4.88
2023-01-15T06:43:43.961Z,4.88
2023-01-15T06:44:16.890Z,4.77
2023-01-15T06:44:48.019Z,4.77
2023-01-15T06:45:20.931Z,4.77
2023-01-15T06:45:59.399Z,4.77
2023-01-15T06:46:24.860Z,4.77
2023-01-15T06:46:55.753Z,4.77
2023-01-15T06:47:28.779Z,4.77
2023-01-15T06:47:59.824Z,4.77
2023-01-15T06:48:32.890Z,4.77
2023-01-15T06:49:03.732Z,4.77
2023-01-15T06:49:36.833Z,4.77
2023-01-15T06:50:08.125Z,4.77
2023-01-15T06:50:40.772Z,4.77
2023-01-15T06:51:11.587Z,4.77
2023-01-15T06:51:44.513Z,4.77
2023-01-15T06:52:15.705Z,4.77
2023-01-15T06:52:48.573Z,4.77
2023-01-15T06:53:19.520Z,4.77
2023-01-15T06:53:52.455Z,4.77
2023-01-15T06:54:23.592Z,4.77
2023-01-15T06:54:56.609Z,4.77
2023-01-15T06:55:27.434Z,4.77
2023-01-15T06:56:00.372Z,4.77
2023-01-15T06:56:31.516Z,4.77
2023-01-15T06:57:04.304Z,4.77
2023-01-15T06:57:35.381Z,4.77
2023-01-15T06:58:08.243Z,4.77
2023-01-15T06:58:39.453Z,4.72
2023-01-15T06:59:12.675Z,4.77
2023-01-15T06:59:43.217Z,4.77
2023-01-15T07:00:16.552Z,4.77
2023-01-15T07:00:47.355Z,4.77
2023-01-15T07:01:20.210Z,4.77
2023-01-15T07:01:51.304Z,4.77
2023-01-15T07:02:24.112Z,4.77
2023-01-15T07:02:55.244Z,4.77
2023-01-15T07:03:27.952Z,4.77
2023-01-15T07:03:59.169Z,4.77
2023-01-15T07:04:32.051Z,4.77
2023-01-15T07:05:03.195Z,4.77
2023-01-15T07:05:35.962Z,4.77
2023-01-15T07:06:07.026Z,4.77